createdAt,value
2018-11-28T00:02:18.762Z,41.00
2018-11-28T00:04:48.852Z,43.30
2018-11-28T00:07:19.102Z,41.40
2018-11-28T00:09:49.242Z,43.77
2018-11-28T00:12:19.232Z,42.57
2018-11-28T00:14:49.354Z,43.07
2018-11-28T00:17:19.351Z,44.30
2018-11-28T00:19:49.393Z,42.73
2018-11-28T00:22:19.356Z,45.10
2018-11-28T00:24:49.532Z,42.87
2018-11-28T00:27:19.421Z,46.23
2018-11-28T00:29:49.312Z,41.17
2018-11-28T00:32:19.273Z,48.73
2018-11-28T00:34:49.193Z,41.47
2018-11-28T00:37:19.053Z,41.47
2018-11-28T00:39:48.832Z,43.77
2018-11-28T00:42:18.866Z,43.70
2018-11-28T00:44:49.172Z,46.20
2018-11-28T00:47:19.142Z,47.47
2018-11-28T00:49:49.013Z,45.70
2018-11-28T00:52:18.982Z,45.67
2018-11-28T00:54:49.002Z,40.30
2018-11-28T00:57:19.002Z,48.47
2018-11-28T00:59:48.893Z,46.67
2018-11-28T01:02:18.932Z,48.47
2018-11-28T01:04:48.981Z,47.00
2018-11-28T01:07:19.042Z,43.47
2018-11-28T01:09:49.152Z,39.17
2018-11-28T01:12:19.215Z,44.07
2018-11-28T01:14:49.570Z,46.07
2018-11-28T01:17:19.541Z,43.43
2018-11-28T01:19:49.675Z,46.80
2018-11-28T01:22:19.712Z,43.73
2018-11-28T01:24:50.022Z,44.53
2018-11-28T01:27:20.093Z,43.00
2018-11-28T01:29:50.140Z,45.00
2018-11-28T01:32:20.142Z,42.70
2018-11-28T01:34:50.332Z,46.20
2018-11-28T01:37:20.501Z,43.07
2018-11-28T01:39:50.393Z,39.67
2018-11-28T01:42:20.381Z,43.90
2018-11-28T01:44:50.482Z,39.10
2018-11-28T01:47:20.373Z,45.30
2018-11-28T01:49:50.232Z,43.67
2018-11-28T01:52:20.243Z,40.23
2018-11-28T01:54:50.262Z,41.33
2018-11-28T01:57:20.132Z,41.70
2018-11-28T01:59:50.001Z,42.30
2018-11-28T02:02:20.042Z,42.43
2018-11-28T02:04:49.922Z,40.77
2018-11-28T02:07:20.532Z,45.00
2018-11-28T02:09:50.452Z,42.90
2018-11-28T02:12:20.452Z,39.43
2018-11-28T02:14:50.842Z,40.07
2018-11-28T02:17:20.923Z,40.73
2018-11-28T02:19:50.912Z,40.70
2018-11-28T02:22:20.972Z,39.43
2018-11-28T02:24:50.892Z,38.83
2018-11-28T02:27:20.791Z,42.80
2018-11-28T02:29:50.711Z,44.23
2018-11-28T02:32:20.935Z,38.33
2018-11-28T02:34:50.841Z,40.87
2018-11-28T02:37:21.051Z,41.43
2018-11-28T02:39:51.012Z,42.03
2018-11-28T02:42:21.033Z,44.43
2018-11-28T02:44:50.915Z,42.27
2018-11-28T02:47:21.055Z,40.37
2018-11-28T02:49:51.080Z,42.00
2018-11-28T02:52:21.105Z,43.50
2018-11-28T02:54:51.241Z,41.67
2018-11-28T02:57:21.212Z,42.77
2018-11-28T02:59:51.214Z,41.77
2018-11-28T03:02:21.172Z,41.00
2018-11-28T03:04:50.932Z,39.47
2018-11-28T03:07:21.010Z,42.57
2018-11-28T03:09:51.291Z,40.33
2018-11-28T03:12:21.513Z,39.77
2018-11-28T03:14:51.642Z,44.47
2018-11-28T03:17:25.472Z,42.03
2018-11-28T03:19:55.683Z,45.67
2018-11-28T03:22:25.873Z,39.97
2018-11-28T03:24:55.854Z,40.93
2018-11-28T03:27:26.278Z,37.40
2018-11-28T03:29:56.272Z,39.67
2018-11-28T03:32:26.645Z,38.83
2018-11-28T03:34:56.684Z,39.27
2018-11-28T03:37:26.902Z,40.33
2018-11-28T03:39:57.164Z,41.13
2018-11-28T03:42:27.232Z,39.43
2018-11-28T03:44:57.193Z,38.53
2018-11-28T03:47:27.167Z,38.93
2018-11-28T03:49:57.183Z,42.47
2018-11-28T03:52:27.283Z,45.37
2018-11-28T03:54:57.307Z,40.47
2018-11-28T03:57:27.374Z,40.17
2018-11-28T03:59:57.233Z,38.30
2018-11-28T04:02:26.582Z,39.10
2018-11-28T04:04:56.643Z,39.63
2018-11-28T04:07:26.613Z,37.73
2018-11-28T04:09:56.694Z,41.33
2018-11-28T04:12:26.533Z,44.40
2018-11-28T04:14:56.413Z,45.73
2018-11-28T04:17:26.364Z,42.20
2018-11-28T04:19:56.513Z,40.03
2018-11-28T04:22:26.241Z,41.47
2018-11-28T04:24:56.032Z,38.83
2018-11-28T04:27:26.460Z,46.60
2018-11-28T04:29:56.579Z,40.40
2018-11-28T04:32:26.483Z,41.83
2018-11-28T04:34:56.832Z,42.30
2018-11-28T04:37:26.833Z,39.67
2018-11-28T04:39:56.853Z,39.60
2018-11-28T04:42:26.993Z,38.70
2018-11-28T04:44:57.333Z,42.90
2018-11-28T04:47:27.233Z,47.40
2018-11-28T04:49:57.103Z,43.50
2018-11-28T04:52:28.123Z,48.80
2018-11-28T04:54:58.513Z,43.90
2018-11-28T04:57:28.513Z,43.80
2018-11-28T04:59:58.492Z,46.43
2018-11-28T05:02:28.294Z,42.10
2018-11-28T05:04:57.962Z,41.17
2018-11-28T05:07:29.666Z,44.13
2018-11-28T05:10:00.087Z,43.33
2018-11-28T05:12:30.137Z,43.53
2018-11-28T05:15:00.294Z,43.30
2018-11-28T05:17:30.414Z,46.70
2018-11-28T05:20:00.453Z,45.23
2018-11-28T05:22:30.395Z,42.17
2018-11-28T05:25:00.412Z,48.33
2018-11-28T05:27:30.243Z,44.40
2018-11-28T05:30:00.525Z,45.00
2018-11-28T05:32:30.742Z,44.40
2018-11-28T05:35:00.654Z,43.13
2018-11-28T05:37:30.594Z,43.03
2018-11-28T05:40:00.702Z,41.97
2018-11-28T05:42:30.643Z,44.03
2018-11-28T05:45:00.347Z,42.07
2018-11-28T05:47:30.001Z,48.03
2018-11-28T05:49:59.159Z,43.90
2018-11-28T05:52:28.943Z,44.53
2018-11-28T05:54:58.249Z,44.13
2018-11-28T05:57:28.332Z,44.83
2018-11-28T05:59:58.303Z,42.47
2018-11-28T06:02:28.494Z,49.03
2018-11-28T06:04:58.885Z,46.07
2018-11-28T06:07:28.904Z,46.87
2018-11-28T06:09:59.694Z,42.13
2018-11-28T06:12:29.742Z,42.70
2018-11-28T06:14:59.291Z,44.50
2018-11-28T06:17:29.233Z,45.50
2018-11-28T06:19:59.282Z,41.07
2018-11-28T06:22:29.214Z,41.70
2018-11-28T06:24:59.414Z,47.60
2018-11-28T06:27:29.373Z,44.67
2018-11-28T06:29:59.935Z,46.87
2018-11-28T06:32:29.995Z,45.73
2018-11-28T06:34:59.953Z,47.07
2018-11-28T06:37:29.612Z,46.30
2018-11-28T06:39:59.406Z,44.93
2018-11-28T06:42:29.463Z,45.40
2018-11-28T06:44:59.324Z,45.53
2018-11-28T06:47:29.870Z,44.10
2018-11-28T06:50:00.623Z,48.90
2018-11-28T06:52:30.489Z,42.60
2018-11-28T06:55:00.436Z,48.30
2018-11-28T06:57:31.123Z,48.67
2018-11-28T07:00:01.304Z,47.67
2018-11-28T07:02:31.355Z,43.83
2018-11-28T07:05:02.991Z,43.10
2018-11-28T07:07:33.234Z,46.07
2018-11-28T07:10:03.216Z,47.57
2018-11-28T07:12:33.535Z,44.77
2018-11-28T07:15:03.497Z,50.47
2018-11-28T07:17:33.614Z,46.90
2018-11-28T07:20:03.850Z,47.20
2018-11-28T07:22:34.416Z,52.80
2018-11-28T07:25:05.322Z,47.20
2018-11-28T07:27:35.671Z,46.23
2018-11-28T07:30:16.735Z,46.87
2018-11-28T07:32:47.694Z,44.50
2018-11-28T07:35:17.687Z,48.17
2018-11-28T07:37:47.983Z,45.33
2018-11-28T07:40:22.593Z,44.77
2018-11-28T07:43:07.732Z,41.60
2018-11-28T07:45:40.253Z,42.40
2018-11-28T07:48:10.254Z,44.80
2018-11-28T07:50:40.354Z,49.13
2018-11-28T07:53:10.702Z,48.53
2018-11-28T07:55:47.462Z,46.33
2018-11-28T07:58:17.775Z,55.03
2018-11-28T08:00:47.552Z,42.43
2018-11-28T08:03:18.975Z,45.27
2018-11-28T08:05:48.995Z,46.90
2018-11-28T08:08:19.043Z,47.87
2018-11-28T08:10:48.972Z,43.80
2018-11-28T08:13:19.265Z,46.97
2018-11-28T08:15:49.449Z,47.73
2018-11-28T08:18:19.574Z,48.77
2018-11-28T08:20:49.695Z,45.60
2018-11-28T08:23:19.809Z,50.80
2018-11-28T08:25:50.034Z,47.40
2018-11-28T08:28:20.104Z,44.67
2018-11-28T08:30:50.254Z,46.93
2018-11-28T08:33:20.262Z,46.93
2018-11-28T08:35:50.134Z,41.03
2018-11-28T08:38:20.374Z,42.00
2018-11-28T08:40:50.164Z,44.10
2018-11-28T08:43:20.034Z,41.40
2018-11-28T08:45:49.995Z,38.80
2018-11-28T08:48:20.534Z,43.37
2018-11-28T08:50:50.774Z,44.37
2018-11-28T08:53:20.893Z,39.07
2018-11-28T08:55:51.163Z,40.17
2018-11-28T08:58:20.842Z,38.43
2018-11-28T09:00:50.624Z,36.03
2018-11-28T09:03:20.595Z,41.00
2018-11-28T09:05:50.475Z,39.23
2018-11-28T09:08:20.552Z,35.33
2018-11-28T09:10:50.456Z,39.87
2018-11-28T09:13:20.503Z,34.70
2018-11-28T09:15:50.544Z,38.00
2018-11-28T09:18:20.524Z,38.97
2018-11-28T09:20:50.504Z,35.53
2018-11-28T09:23:20.524Z,37.13
2018-11-28T09:25:50.553Z,40.23
2018-11-28T09:28:20.136Z,40.23
2018-11-28T09:30:50.433Z,38.57
2018-11-28T09:33:20.514Z,34.93
2018-11-28T09:35:50.582Z,36.83
2018-11-28T09:38:21.431Z,34.87
2018-11-28T09:40:50.603Z,36.27
2018-11-28T09:43:20.763Z,33.60
2018-11-28T09:45:50.534Z,33.83
2018-11-28T09:48:20.515Z,31.80
2018-11-28T09:50:50.655Z,29.83
2018-11-28T09:53:20.763Z,30.00
2018-11-28T09:55:50.975Z,31.60
2018-11-28T09:58:20.955Z,31.50
2018-11-28T10:00:51.115Z,29.60
2018-11-28T10:03:20.695Z,28.77
2018-11-28T10:05:50.696Z,29.13
2018-11-28T10:08:20.765Z,24.73
2018-11-28T10:10:51.035Z,28.13
2018-11-28T10:13:21.095Z,27.03
2018-11-28T10:15:51.194Z,27.60
2018-11-28T10:18:21.235Z,27.10
2018-11-28T10:20:51.115Z,27.80
2018-11-28T10:23:20.845Z,28.23
2018-11-28T10:25:51.004Z,24.77
2018-11-28T10:28:21.035Z,29.10
2018-11-28T10:30:50.974Z,27.37
2018-11-28T10:33:21.156Z,27.47
2018-11-28T10:35:52.144Z,31.60
2018-11-28T10:38:22.165Z,25.10
2018-11-28T10:40:52.216Z,27.47
2018-11-28T10:43:22.245Z,24.70
2018-11-28T10:45:52.415Z,26.03
2018-11-28T10:48:22.354Z,26.10
2018-11-28T10:50:52.814Z,26.70
2018-11-28T10:53:22.757Z,25.57
2018-11-28T10:55:52.665Z,29.73
2018-11-28T10:58:22.509Z,25.97
2018-11-28T11:00:57.833Z,26.97
2018-11-28T11:03:33.034Z,28.53
2018-11-28T11:06:04.386Z,28.00
2018-11-28T11:08:40.025Z,26.57
2018-11-28T11:11:15.143Z,28.37
2018-11-28T11:13:50.344Z,22.97
2018-11-28T11:16:25.646Z,25.70
2018-11-28T11:18:56.284Z,27.87
2018-11-28T11:21:26.585Z,27.23
2018-11-28T11:23:56.736Z,24.33
2018-11-28T11:26:26.815Z,26.03
2018-11-28T11:28:56.884Z,27.83
2018-11-28T11:31:26.966Z,26.37
2018-11-28T11:33:57.055Z,29.67
2018-11-28T11:36:27.224Z,26.33
2018-11-28T11:38:57.158Z,25.27
2018-11-28T11:41:27.084Z,25.63
2018-11-28T11:43:57.296Z,25.53
2018-11-28T11:46:27.636Z,28.40
2018-11-28T11:48:57.676Z,22.23
2018-11-28T11:51:28.025Z,23.07
2018-11-28T11:53:58.815Z,22.07
2018-11-28T11:56:28.944Z,22.57
2018-11-28T11:58:58.927Z,21.63
2018-11-28T12:01:29.406Z,21.50
2018-11-28T12:03:59.455Z,19.93
2018-11-28T12:06:29.665Z,20.27
2018-11-28T12:08:59.496Z,21.23
2018-11-28T12:11:29.784Z,18.83
2018-11-28T12:13:59.744Z,12.00
2018-11-28T12:16:29.854Z,10.27
2018-11-28T12:19:00.019Z,11.73
2018-11-28T12:21:30.245Z,15.37
2018-11-28T12:24:00.437Z,11.93
2018-11-28T12:26:30.652Z,14.13
2018-11-28T12:29:00.597Z,11.87
2018-11-28T12:31:30.185Z,12.23
2018-11-28T12:34:00.449Z,11.87
2018-11-28T12:36:30.266Z,11.07
2018-11-28T12:39:00.546Z,13.07
2018-11-28T12:41:30.424Z,13.90
2018-11-28T12:44:00.348Z,14.07
2018-11-28T12:46:30.336Z,13.13
2018-11-28T12:49:00.325Z,12.40
2018-11-28T12:51:30.496Z,12.73
2018-11-28T12:54:01.364Z,12.97
2018-11-28T12:56:31.435Z,13.73
2018-11-28T12:59:01.858Z,13.53
2018-11-28T13:01:32.891Z,13.63
2018-11-28T13:04:02.405Z,13.17
2018-11-28T13:06:32.504Z,13.53
2018-11-28T13:09:02.514Z,14.43
2018-11-28T13:11:32.595Z,13.10
2018-11-28T13:14:02.396Z,13.40
2018-11-28T13:16:32.405Z,13.37
2018-11-28T13:19:02.444Z,12.60
2018-11-28T13:21:32.464Z,11.33
2018-11-28T13:24:02.564Z,15.27
2018-11-28T13:26:32.544Z,14.77
2018-11-28T13:29:02.625Z,11.97
2018-11-28T13:31:32.776Z,12.93
2018-11-28T13:34:02.885Z,12.77
2018-11-28T13:36:32.826Z,11.17
2018-11-28T13:39:02.915Z,10.40
2018-11-28T13:41:33.305Z,9.20
2018-11-28T13:44:03.344Z,10.40
2018-11-28T13:46:33.484Z,10.07
2018-11-28T13:49:03.658Z,9.53
2018-11-28T13:51:33.565Z,7.33
2018-11-28T13:54:20.746Z,8.63
2018-11-28T13:59:03.695Z,8.27
2018-11-28T14:01:33.796Z,10.97
2018-11-28T14:04:03.785Z,9.80
2018-11-28T14:06:33.705Z,9.20
2018-11-28T14:09:04.484Z,10.13
2018-11-28T14:11:34.455Z,9.50
2018-11-28T14:14:04.554Z,9.00
2018-11-28T14:16:34.616Z,8.03
2018-11-28T14:19:04.705Z,8.83
2018-11-28T14:21:35.167Z,7.90
2018-11-28T14:24:05.795Z,8.80
2018-11-28T14:26:35.745Z,9.57
2018-11-28T14:29:06.315Z,9.57
2018-11-28T14:31:41.812Z,7.40
2018-11-28T14:34:13.456Z,9.30
2018-11-28T14:36:47.141Z,9.50
2018-11-28T14:39:18.347Z,9.20
2018-11-28T14:41:50.547Z,9.67
2018-11-28T14:44:32.166Z,10.33
2018-11-28T14:47:20.850Z,9.37
2018-11-28T14:49:50.936Z,12.13
2018-11-28T14:52:20.684Z,10.50
2018-11-28T14:54:50.784Z,12.10
2018-11-28T14:57:20.773Z,12.57
2018-11-28T14:59:51.024Z,9.30
2018-11-28T15:02:21.064Z,10.43
2018-11-28T15:04:51.152Z,11.83
2018-11-28T15:07:21.944Z,8.07
2018-11-28T15:09:52.304Z,11.23
2018-11-28T15:12:22.156Z,9.50
2018-11-28T15:14:51.716Z,14.50
2018-11-28T15:17:22.144Z,11.30
2018-11-28T15:19:52.276Z,13.13
2018-11-28T15:22:22.264Z,14.53
2018-11-28T15:24:52.123Z,14.33
2018-11-28T15:27:22.525Z,12.33
2018-11-28T15:29:52.616Z,27.10
2018-11-28T15:32:22.653Z,13.73
2018-11-28T15:34:57.893Z,12.33
2018-11-28T15:37:24.304Z,11.20
2018-11-28T15:39:55.955Z,13.47
2018-11-28T15:42:26.608Z,14.20
2018-11-28T15:44:56.544Z,12.47
2018-11-28T15:47:28.197Z,12.80
2018-11-28T15:49:58.867Z,19.07
2018-11-28T15:52:30.264Z,12.63
2018-11-28T15:55:00.388Z,10.97
2018-11-28T15:57:31.564Z,12.97
2018-11-28T16:00:01.586Z,13.67
2018-11-28T16:02:33.224Z,16.10
2018-11-28T16:05:03.749Z,14.03
2018-11-28T16:07:34.261Z,15.23
2018-11-28T16:10:10.794Z,20.57
2018-11-28T16:12:40.744Z,14.40
2018-11-28T16:15:13.795Z,13.43
2018-11-28T16:17:43.964Z,13.83
2018-11-28T16:20:14.523Z,13.30
2018-11-28T16:22:45.386Z,14.33
2018-11-28T16:25:15.356Z,12.73
2018-11-28T16:27:45.265Z,14.33
2018-11-28T16:30:17.785Z,15.67
2018-11-28T16:32:48.324Z,13.20
2018-11-28T16:35:19.577Z,15.50
2018-11-28T16:37:49.693Z,14.93
2018-11-28T16:40:30.252Z,15.53
2018-11-28T16:43:01.067Z,17.03
2018-11-28T16:45:31.114Z,14.30
2018-11-28T16:48:01.374Z,12.63
2018-11-28T16:50:31.285Z,12.97
2018-11-28T16:53:15.487Z,15.67
2018-11-28T16:56:06.034Z,24.40
2018-11-28T16:58:36.624Z,13.10
2018-11-28T17:01:07.123Z,19.17
2018-11-28T17:03:37.427Z,16.53
2018-11-28T17:06:07.614Z,12.20
2018-11-28T17:08:38.601Z,15.00
2018-11-28T17:11:08.614Z,13.77
2018-11-28T17:13:38.300Z,12.70
2018-11-28T17:16:12.378Z,13.50
2018-11-28T17:18:55.667Z,12.70
2018-11-28T17:21:28.259Z,13.23
2018-11-28T17:24:01.521Z,12.03
2018-11-28T17:26:31.233Z,13.77
2018-11-28T17:29:12.341Z,13.67
2018-11-28T17:31:42.743Z,14.07
2018-11-28T17:34:12.744Z,10.57
2018-11-28T17:36:42.914Z,8.83
2018-11-28T17:39:14.663Z,10.63
2018-11-28T17:41:44.664Z,21.33
2018-11-28T17:44:14.734Z,10.90
2018-11-28T17:46:44.644Z,14.37
2018-11-28T17:49:14.763Z,12.97
2018-11-28T17:51:44.934Z,14.60
2018-11-28T17:54:15.768Z,12.20
2018-11-28T17:56:44.639Z,9.50
2018-11-28T17:59:15.254Z,10.97
2018-11-28T18:01:45.307Z,11.70
2018-11-28T18:04:15.333Z,11.07
2018-11-28T18:06:45.264Z,9.40
2018-11-28T18:09:14.953Z,9.67
2018-11-28T18:11:44.973Z,8.27
2018-11-28T18:14:15.125Z,10.63
2018-11-28T18:16:45.775Z,7.43
2018-11-28T18:19:15.524Z,8.57
2018-11-28T18:21:45.534Z,11.23
2018-11-28T18:24:15.503Z,9.30
2018-11-28T18:26:45.503Z,9.60
2018-11-28T18:29:15.584Z,9.10
2018-11-28T18:31:46.424Z,11.27
2018-11-28T18:34:16.483Z,9.27
2018-11-28T18:36:46.623Z,13.00
2018-11-28T18:39:16.695Z,14.97
2018-11-28T18:41:49.342Z,13.30
2018-11-28T18:44:19.423Z,13.63
2018-11-28T18:46:49.483Z,12.67
2018-11-28T18:49:19.665Z,11.47
2018-11-28T18:51:50.023Z,11.63
2018-11-28T18:54:20.154Z,10.63
2018-11-28T18:56:50.395Z,17.27
2018-11-28T18:59:20.433Z,12.23
2018-11-28T19:01:50.523Z,12.57
2018-11-28T19:04:24.092Z,13.70
2018-11-28T19:06:54.153Z,10.80
2018-11-28T19:09:30.153Z,13.10
2018-11-28T19:12:00.280Z,12.93
2018-11-28T19:14:30.813Z,15.93
2018-11-28T19:17:00.952Z,16.17
2018-11-28T19:19:30.894Z,15.10
2018-11-28T19:22:01.890Z,13.83
2018-11-28T19:24:32.504Z,14.23
2018-11-28T19:27:02.736Z,12.27
2018-11-28T19:29:32.824Z,15.50
2018-11-28T19:32:02.863Z,13.13
2018-11-28T19:34:33.046Z,16.80
2018-11-28T19:37:03.304Z,13.47
2018-11-28T19:39:34.483Z,14.63
2018-11-28T19:42:05.071Z,16.23
2018-11-28T19:44:34.776Z,14.03
2018-11-28T19:47:04.947Z,13.47
2018-11-28T19:49:34.782Z,17.47
2018-11-28T19:52:04.933Z,11.90
2018-11-28T19:54:35.022Z,11.93
2018-11-28T19:57:11.673Z,12.40
2018-11-28T19:59:42.023Z,12.67
2018-11-28T20:02:11.494Z,11.90
2018-11-28T20:04:41.556Z,11.53
2018-11-28T20:07:11.381Z,13.90
2018-11-28T20:09:41.783Z,13.43
2018-11-28T20:12:11.932Z,13.33
2018-11-28T20:14:42.001Z,10.90
2018-11-28T20:17:12.210Z,12.07
2018-11-28T20:19:42.263Z,14.10
2018-11-28T20:22:12.456Z,15.53
2018-11-28T20:24:42.924Z,14.27
2018-11-28T20:27:12.872Z,16.37
2018-11-28T20:29:42.993Z,14.37
2018-11-28T20:32:13.202Z,14.90
2018-11-28T20:34:43.333Z,13.63
2018-11-28T20:37:13.434Z,11.43
2018-11-28T20:39:43.343Z,12.17
2018-11-28T20:42:13.372Z,11.97
2018-11-28T20:44:43.803Z,12.97
2018-11-28T20:47:13.883Z,14.80
2018-11-28T20:49:44.063Z,11.80
2018-11-28T20:52:14.363Z,13.27
2018-11-28T20:54:44.443Z,13.03
2018-11-28T20:57:17.373Z,13.33
2018-11-28T20:59:44.843Z,12.57
2018-11-28T21:02:14.863Z,16.47
2018-11-28T21:04:45.064Z,15.60
2018-11-28T21:07:15.162Z,14.37
2018-11-28T21:09:51.183Z,13.37
2018-11-28T21:12:21.563Z,13.77
2018-11-28T21:14:51.892Z,13.47
2018-11-28T21:17:21.884Z,14.17
2018-11-28T21:19:51.923Z,14.03
2018-11-28T21:22:22.182Z,14.77
2018-11-28T21:24:52.313Z,15.07
2018-11-28T21:27:22.302Z,14.67
2018-11-28T21:29:52.204Z,17.77
2018-11-28T21:32:22.232Z,17.37
2018-11-28T21:34:52.273Z,17.77
2018-11-28T21:37:22.222Z,14.80
2018-11-28T21:39:57.313Z,14.47
2018-11-28T21:42:34.125Z,17.23
2018-11-28T21:45:04.243Z,15.70
2018-11-28T21:47:34.303Z,16.27
2018-11-28T21:50:05.193Z,16.30
2018-11-28T21:52:35.252Z,15.17
2018-11-28T21:55:05.775Z,17.40
2018-11-28T21:57:35.772Z,16.30
2018-11-28T22:00:23.445Z,15.63
2018-11-28T22:02:53.415Z,14.97
2018-11-28T22:05:24.112Z,15.47
2018-11-28T22:07:54.253Z,17.63
2018-11-28T22:10:26.833Z,15.27
2018-11-28T22:12:57.443Z,14.13
2018-11-28T22:15:27.473Z,15.90
2018-11-28T22:17:58.932Z,18.30
2018-11-28T22:20:29.064Z,15.07
2018-11-28T22:22:58.932Z,16.80
2018-11-28T22:25:29.253Z,16.63
2018-11-28T22:27:59.358Z,21.10
2018-11-28T22:30:30.903Z,17.93
2018-11-28T22:33:01.256Z,16.90
2018-11-28T22:35:31.092Z,15.93
2018-11-28T22:38:01.173Z,17.90
2018-11-28T22:40:31.984Z,16.10
2018-11-28T22:43:02.223Z,16.83
2018-11-28T22:45:35.683Z,18.80
2018-11-28T22:48:05.943Z,16.70
2018-11-28T22:50:35.943Z,18.23
2018-11-28T22:53:06.504Z,18.07
2018-11-28T22:55:36.934Z,16.63
2018-11-28T22:58:07.272Z,18.33
2018-11-28T23:00:42.634Z,17.20
2018-11-28T23:03:12.563Z,14.70
2018-11-28T23:05:46.595Z,18.70
2018-11-28T23:08:18.122Z,17.47
2018-11-28T23:10:48.603Z,19.63
2018-11-28T23:13:21.675Z,17.60
2018-11-28T23:15:51.532Z,13.87
2018-11-28T23:18:21.477Z,16.93
2018-11-28T23:20:51.933Z,15.50
2018-11-28T23:23:22.013Z,19.03
2018-11-28T23:25:52.722Z,20.27
2018-11-28T23:28:22.555Z,15.17
2018-11-28T23:30:52.613Z,15.17
2018-11-28T23:33:22.592Z,17.83
2018-11-28T23:35:52.793Z,18.10
2018-11-28T23:38:22.433Z,14.03
2018-11-28T23:40:52.418Z,15.07
2018-11-28T23:43:22.503Z,18.53
2018-11-28T23:45:52.693Z,16.50
2018-11-28T23:48:22.743Z,20.97
2018-11-28T23:50:52.972Z,16.47
2018-11-28T23:53:22.556Z,19.00
2018-11-28T23:55:52.893Z,15.47
2018-11-28T23:58:23.614Z,17.80
